sensor_id;sensor_type;location;lat;lon;timestamp;pressure;altitude;pressure_sealevel;temperature;humidity
50302;BME280;36550;50.472;19.744;2023-12-28T00:01:14;98382.08;;;1.43;84.93
50302;BME280;36550;50.472;19.744;2023-12-28T00:03:58;98382.21;;;1.45;84.85
50302;BME280;36550;50.472;19.744;2023-12-28T00:06:42;98371.70;;;1.45;84.41
50302;BME280;36550;50.472;19.744;2023-12-28T00:09:27;98363.02;;;1.45;84.43
50302;BME280;36550;50.472;19.744;2023-12-28T00:12:11;98358.09;;;1.48;84.45
50302;BME280;36550;50.472;19.744;2023-12-28T00:14:56;98355.13;;;1.51;84.39
50302;BME280;36550;50.472;19.744;2023-12-28T00:17:41;98359.38;;;1.55;84.44
50302;BME280;36550;50.472;19.744;2023-12-28T00:20:25;98355.89;;;1.57;84.39
50302;BME280;36550;50.472;19.744;2023-12-28T00:23:09;98350.11;;;1.59;84.48
50302;BME280;36550;50.472;19.744;2023-12-28T00:25:54;98348.38;;;1.61;84.42
50302;BME280;36550;50.472;19.744;2023-12-28T00:28:38;98352.08;;;1.63;84.44
50302;BME280;36550;50.472;19.744;2023-12-28T00:31:22;98346.82;;;1.66;84.37
50302;BME280;36550;50.472;19.744;2023-12-28T00:34:06;98351.55;;;1.67;84.26
50302;BME280;36550;50.472;19.744;2023-12-28T00:36:50;98346.05;;;1.65;83.97
50302;BME280;36550;50.472;19.744;2023-12-28T00:39:34;98342.02;;;1.62;83.89
50302;BME280;36550;50.472;19.744;2023-12-28T00:42:19;98340.95;;;1.63;83.93
50302;BME280;36550;50.472;19.744;2023-12-28T00:45:04;98342.55;;;1.62;84.06
50302;BME280;36550;50.472;19.744;2023-12-28T00:47:48;98338.52;;;1.58;83.93
50302;BME280;36550;50.472;19.744;2023-12-28T00:50:33;98333.16;;;1.53;83.81
50302;BME280;36550;50.472;19.744;2023-12-28T00:53:17;98325.75;;;1.47;83.62
50302;BME280;36550;50.472;19.744;2023-12-28T00:56:02;98325.09;;;1.44;83.72
50302;BME280;36550;50.472;19.744;2023-12-28T00:58:46;98319.85;;;1.40;83.68
50302;BME280;36550;50.472;19.744;2023-12-28T01:01:30;98315.77;;;1.36;83.70
50302;BME280;36550;50.472;19.744;2023-12-28T01:04:15;98309.77;;;1.34;83.58
50302;BME280;36550;50.472;19.744;2023-12-28T01:06:59;98304.06;;;1.32;83.51
50302;BME280;36550;50.472;19.744;2023-12-28T01:09:46;98298.66;;;1.31;83.54
50302;BME280;36550;50.472;19.744;2023-12-28T01:12:30;98285.67;;;1.30;83.43
50302;BME280;36550;50.472;19.744;2023-12-28T01:15:14;98281.95;;;1.28;83.47
50302;BME280;36550;50.472;19.744;2023-12-28T01:18:01;98271.34;;;1.26;83.33
50302;BME280;36550;50.472;19.744;2023-12-28T01:20:46;98266.19;;;1.23;83.45
50302;BME280;36550;50.472;19.744;2023-12-28T01:23:30;98261.11;;;1.19;83.39
50302;BME280;36550;50.472;19.744;2023-12-28T01:26:14;98258.67;;;1.12;83.29
50302;BME280;36550;50.472;19.744;2023-12-28T01:28:59;98254.14;;;0.95;82.74
50302;BME280;36550;50.472;19.744;2023-12-28T01:31:45;98254.66;;;0.84;82.82
50302;BME280;36550;50.472;19.744;2023-12-28T01:34:30;98249.45;;;0.79;82.98
50302;BME280;36550;50.472;19.744;2023-12-28T01:37:14;98251.86;;;0.75;83.15
50302;BME280;36550;50.472;19.744;2023-12-28T01:39:59;98240.09;;;0.74;83.19
50302;BME280;36550;50.472;19.744;2023-12-28T01:42:45;98241.04;;;0.73;83.08
50302;BME280;36550;50.472;19.744;2023-12-28T01:45:29;98236.70;;;0.72;83.14
50302;BME280;36550;50.472;19.744;2023-12-28T01:48:14;98228.31;;;0.71;83.12
50302;BME280;36550;50.472;19.744;2023-12-28T01:50:59;98222.98;;;0.71;83.18
50302;BME280;36550;50.472;19.744;2023-12-28T01:53:44;98223.92;;;0.71;83.21
50302;BME280;36550;50.472;19.744;2023-12-28T01:56:29;98231.80;;;0.68;83.16
50302;BME280;36550;50.472;19.744;2023-12-28T01:59:14;98227.56;;;0.61;83.04
50302;BME280;36550;50.472;19.744;2023-12-28T02:01:58;98228.09;;;0.53;82.95
50302;BME280;36550;50.472;19.744;2023-12-28T02:04:45;98226.40;;;0.48;83.06
50302;BME280;36550;50.472;19.744;2023-12-28T02:07:32;98225.83;;;0.43;83.15
50302;BME280;36550;50.472;19.744;2023-12-28T02:10:16;98219.44;;;0.40;83.28
50302;BME280;36550;50.472;19.744;2023-12-28T02:13:00;98221.17;;;0.36;83.33
50302;BME280;36550;50.472;19.744;2023-12-28T02:15:47;98216.90;;;0.33;83.28
50302;BME280;36550;50.472;19.744;2023-12-28T02:18:43;98215.35;;;0.32;83.22
50302;BME280;36550;50.472;19.744;2023-12-28T02:21:28;98217.48;;;0.31;83.21
50302;BME280;36550;50.472;19.744;2023-12-28T02:24:13;98211.66;;;0.29;83.27
50302;BME280;36550;50.472;19.744;2023-12-28T02:26:58;98211.91;;;0.28;83.33
50302;BME280;36550;50.472;19.744;2023-12-28T02:29:42;98209.61;;;0.29;83.48
50302;BME280;36550;50.472;19.744;2023-12-28T02:36:04;98197.66;;;0.36;83.74
50302;BME280;36550;50.472;19.744;2023-12-28T02:38:51;98193.44;;;0.38;83.85
50302;BME280;36550;50.472;19.744;2023-12-28T02:41:36;98194.98;;;0.39;83.80
50302;BME280;36550;50.472;19.744;2023-12-28T02:44:21;98196.98;;;0.38;83.80
50302;BME280;36550;50.472;19.744;2023-12-28T02:47:05;98191.95;;;0.36;83.85
50302;BME280;36550;50.472;19.744;2023-12-28T02:49:49;98191.89;;;0.34;83.78
50302;BME280;36550;50.472;19.744;2023-12-28T02:52:33;98187.05;;;0.32;83.81
50302;BME280;36550;50.472;19.744;2023-12-28T02:55:18;98177.37;;;0.31;83.89
50302;BME280;36550;50.472;19.744;2023-12-28T02:58:02;98180.61;;;0.30;83.89
50302;BME280;36550;50.472;19.744;2023-12-28T03:00:47;98175.21;;;0.30;83.89
50302;BME280;36550;50.472;19.744;2023-12-28T03:03:32;98164.56;;;0.32;84.02
50302;BME280;36550;50.472;19.744;2023-12-28T03:06:17;98163.13;;;0.39;84.41
50302;BME280;36550;50.472;19.744;2023-12-28T03:09:01;98160.15;;;0.44;84.35
50302;BME280;36550;50.472;19.744;2023-12-28T03:11:45;98149.70;;;0.42;83.91
50302;BME280;36550;50.472;19.744;2023-12-28T03:14:30;98155.59;;;0.33;83.52
50302;BME280;36550;50.472;19.744;2023-12-28T03:17:14;98152.63;;;0.26;83.39
50302;BME280;36550;50.472;19.744;2023-12-28T03:19:59;98146.56;;;0.17;83.24
50302;BME280;36550;50.472;19.744;2023-12-28T03:22:43;98136.21;;;0.12;83.45
50302;BME280;36550;50.472;19.744;2023-12-28T03:25:28;98133.34;;;0.08;83.54
50302;BME280;36550;50.472;19.744;2023-12-28T03:28:12;98127.27;;;0.06;83.56
50302;BME280;36550;50.472;19.744;2023-12-28T03:30:56;98125.92;;;0.05;83.73
50302;BME280;36550;50.472;19.744;2023-12-28T03:33:42;98125.97;;;0.08;83.93
50302;BME280;36550;50.472;19.744;2023-12-28T03:36:27;98121.99;;;0.11;84.09
50302;BME280;36550;50.472;19.744;2023-12-28T03:39:11;98122.52;;;0.14;84.32
50302;BME280;36550;50.472;19.744;2023-12-28T03:41:55;98118.06;;;0.17;85.45
50302;BME280;36550;50.472;19.744;2023-12-28T03:44:40;98117.96;;;0.20;85.58
50302;BME280;36550;50.472;19.744;2023-12-28T03:47:24;98117.42;;;0.22;85.75
50302;BME280;36550;50.472;19.744;2023-12-28T03:50:08;98120.55;;;0.22;85.84
50302;BME280;36550;50.472;19.744;2023-12-28T03:52:53;98119.70;;;0.25;86.17
50302;BME280;36550;50.472;19.744;2023-12-28T03:55:37;98111.75;;;0.30;86.46
50302;BME280;36550;50.472;19.744;2023-12-28T03:58:21;98108.57;;;0.36;86.57
50302;BME280;36550;50.472;19.744;2023-12-28T04:01:05;98114.36;;;0.41;86.84
50302;BME280;36550;50.472;19.744;2023-12-28T04:03:49;98112.78;;;0.46;87.31
50302;BME280;36550;50.472;19.744;2023-12-28T04:06:34;98109.59;;;0.50;86.94
50302;BME280;36550;50.472;19.744;2023-12-28T04:09:18;98110.83;;;0.54;86.62
50302;BME280;36550;50.472;19.744;2023-12-28T04:12:02;98117.17;;;0.58;87.08
50302;BME280;36550;50.472;19.744;2023-12-28T04:14:47;98119.41;;;0.63;86.71
50302;BME280;36550;50.472;19.744;2023-12-28T04:17:31;98118.20;;;0.68;86.53
50302;BME280;36550;50.472;19.744;2023-12-28T04:20:15;98121.02;;;0.71;86.27
50302;BME280;36550;50.472;19.744;2023-12-28T04:22:59;98125.34;;;0.74;86.05
50302;BME280;36550;50.472;19.744;2023-12-28T04:25:44;98130.80;;;0.70;85.50
50302;BME280;36550;50.472;19.744;2023-12-28T04:28:28;98135.08;;;0.60;85.00
50302;BME280;36550;50.472;19.744;2023-12-28T04:31:13;98140.19;;;0.47;84.76
50302;BME280;36550;50.472;19.744;2023-12-28T04:33:57;98136.85;;;0.33;84.47
50302;BME280;36550;50.472;19.744;2023-12-28T04:36:42;98135.74;;;0.23;84.63
50302;BME280;36550;50.472;19.744;2023-12-28T04:39:26;98136.69;;;0.15;84.64
50302;BME280;36550;50.472;19.744;2023-12-28T04:42:11;98134.80;;;0.11;84.63
50302;BME280;36550;50.472;19.744;2023-12-28T04:44:55;98134.13;;;0.06;84.57
50302;BME280;36550;50.472;19.744;2023-12-28T04:47:39;98133.07;;;0.03;84.66
50302;BME280;36550;50.472;19.744;2023-12-28T04:50:24;98126.94;;;0.01;84.70
50302;BME280;36550;50.472;19.744;2023-12-28T04:53:08;98126.59;;;-0.04;84.75
50302;BME280;36550;50.472;19.744;2023-12-28T04:55:55;98125.46;;;-0.10;85.03
50302;BME280;36550;50.472;19.744;2023-12-28T04:58:39;98125.73;;;-0.14;85.22
50302;BME280;36550;50.472;19.744;2023-12-28T05:01:23;98125.39;;;-0.19;85.23
50302;BME280;36550;50.472;19.744;2023-12-28T05:04:09;98126.55;;;-0.24;85.21
50302;BME280;36550;50.472;19.744;2023-12-28T05:06:54;98121.17;;;-0.25;85.34
50302;BME280;36550;50.472;19.744;2023-12-28T05:09:38;98113.95;;;-0.26;85.41
50302;BME280;36550;50.472;19.744;2023-12-28T05:12:22;98107.83;;;-0.28;85.47
50302;BME280;36550;50.472;19.744;2023-12-28T05:15:07;98102.95;;;-0.29;85.53
50302;BME280;36550;50.472;19.744;2023-12-28T05:17:51;98096.70;;;-0.30;85.54
50302;BME280;36550;50.472;19.744;2023-12-28T05:20:35;98091.41;;;-0.31;85.56
50302;BME280;36550;50.472;19.744;2023-12-28T05:23:19;98085.45;;;-0.28;85.80
50302;BME280;36550;50.472;19.744;2023-12-28T05:26:04;98076.05;;;-0.08;88.57
50302;BME280;36550;50.472;19.744;2023-12-28T05:28:48;98075.81;;;0.28;92.04
50302;BME280;36550;50.472;19.744;2023-12-28T05:31:33;98073.94;;;0.67;93.31
50302;BME280;36550;50.472;19.744;2023-12-28T05:34:17;98068.58;;;1.07;94.59
50302;BME280;36550;50.472;19.744;2023-12-28T05:37:01;98058.09;;;1.40;94.85
50302;BME280;36550;50.472;19.744;2023-12-28T05:39:46;98050.96;;;1.77;95.78
50302;BME280;36550;50.472;19.744;2023-12-28T05:42:31;98041.88;;;2.11;95.50
50302;BME280;36550;50.472;19.744;2023-12-28T05:45:16;98033.11;;;2.39;94.53
50302;BME280;36550;50.472;19.744;2023-12-28T05:48:00;98031.48;;;2.60;93.32
50302;BME280;36550;50.472;19.744;2023-12-28T05:50:44;98039.22;;;2.75;92.11
50302;BME280;36550;50.472;19.744;2023-12-28T05:53:28;98041.30;;;2.86;91.20
50302;BME280;36550;50.472;19.744;2023-12-28T05:56:13;98039.61;;;2.93;90.33
50302;BME280;36550;50.472;19.744;2023-12-28T05:58:57;98048.23;;;2.95;89.38
50302;BME280;36550;50.472;19.744;2023-12-28T06:01:42;98034.43;;;2.93;88.68
50302;BME280;36550;50.472;19.744;2023-12-28T06:04:27;98027.77;;;2.89;88.12
50302;BME280;36550;50.472;19.744;2023-12-28T06:07:11;98028.35;;;2.84;87.73
50302;BME280;36550;50.472;19.744;2023-12-28T06:09:55;98033.06;;;2.80;87.64
50302;BME280;36550;50.472;19.744;2023-12-28T06:12:41;98032.88;;;2.74;87.64
50302;BME280;36550;50.472;19.744;2023-12-28T06:15:25;98044.52;;;2.71;87.73
50302;BME280;36550;50.472;19.744;2023-12-28T06:18:10;98033.56;;;2.67;88.18
50302;BME280;36550;50.472;19.744;2023-12-28T06:20:54;98015.50;;;2.68;89.18
50302;BME280;36550;50.472;19.744;2023-12-28T06:23:39;98026.25;;;2.75;89.75
50302;BME280;36550;50.472;19.744;2023-12-28T06:26:23;98021.00;;;2.83;89.95
50302;BME280;36550;50.472;19.744;2023-12-28T06:29:09;98020.77;;;2.92;90.16
50302;BME280;36550;50.472;19.744;2023-12-28T06:31:53;98028.19;;;3.00;90.07
50302;BME280;36550;50.472;19.744;2023-12-28T06:34:37;98032.80;;;3.07;89.87
50302;BME280;36550;50.472;19.744;2023-12-28T06:37:21;98033.30;;;3.13;89.54
50302;BME280;36550;50.472;19.744;2023-12-28T06:40:06;98040.41;;;3.19;89.37
50302;BME280;36550;50.472;19.744;2023-12-28T06:42:51;98052.23;;;3.25;89.00
50302;BME280;36550;50.472;19.744;2023-12-28T06:45:35;98058.05;;;3.28;88.86
50302;BME280;36550;50.472;19.744;2023-12-28T06:48:19;98059.19;;;3.32;88.72
50302;BME280;36550;50.472;19.744;2023-12-28T06:51:04;98060.16;;;3.38;88.87
50302;BME280;36550;50.472;19.744;2023-12-28T06:53:48;98062.51;;;3.45;88.72
50302;BME280;36550;50.472;19.744;2023-12-28T06:56:33;98063.45;;;3.55;88.55
50302;BME280;36550;50.472;19.744;2023-12-28T06:59:17;98068.61;;;3.61;88.38
50302;BME280;36550;50.472;19.744;2023-12-28T07:02:01;98073.36;;;3.66;88.12
50302;BME280;36550;50.472;19.744;2023-12-28T07:04:46;98079.61;;;3.69;87.77
50302;BME280;36550;50.472;19.744;2023-12-28T07:07:30;98079.13;;;3.73;87.85
50302;BME280;36550;50.472;19.744;2023-12-28T07:10:14;98069.35;;;3.79;87.70
50302;BME280;36550;50.472;19.744;2023-12-28T07:12:59;98068.47;;;3.85;87.49
50302;BME280;36550;50.472;19.744;2023-12-28T07:15:43;98075.45;;;3.90;87.37
50302;BME280;36550;50.472;19.744;2023-12-28T07:18:28;98084.41;;;3.92;86.95
50302;BME280;36550;50.472;19.744;2023-12-28T07:21:12;98089.20;;;3.92;86.80
50302;BME280;36550;50.472;19.744;2023-12-28T07:23:56;98091.15;;;3.92;86.64
50302;BME280;36550;50.472;19.744;2023-12-28T07:26:40;98090.45;;;3.92;86.58
50302;BME280;36550;50.472;19.744;2023-12-28T07:29:25;98093.90;;;3.95;86.53
50302;BME280;36550;50.472;19.744;2023-12-28T07:32:09;98099.58;;;3.96;86.28
50302;BME280;36550;50.472;19.744;2023-12-28T07:34:54;98100.84;;;3.99;86.32
50302;BME280;36550;50.472;19.744;2023-12-28T07:37:38;98112.42;;;4.03;86.35
50302;BME280;36550;50.472;19.744;2023-12-28T07:40:23;98123.60;;;4.08;86.41
50302;BME280;36550;50.472;19.744;2023-12-28T07:43:07;98118.84;;;4.14;86.38
50302;BME280;36550;50.472;19.744;2023-12-28T07:45:51;98113.80;;;4.21;86.22
50302;BME280;36550;50.472;19.744;2023-12-28T07:48:35;98112.98;;;4.31;86.01
50302;BME280;36550;50.472;19.744;2023-12-28T07:51:19;98114.57;;;4.41;85.82
50302;BME280;36550;50.472;19.744;2023-12-28T07:54:04;98113.05;;;4.51;85.48
50302;BME280;36550;50.472;19.744;2023-12-28T07:56:48;98120.29;;;4.60;85.32
50302;BME280;36550;50.472;19.744;2023-12-28T07:59:32;98132.73;;;4.70;85.73
50302;BME280;36550;50.472;19.744;2023-12-28T08:02:17;98128.88;;;4.75;85.26
50302;BME280;36550;50.472;19.744;2023-12-28T08:05:02;98121.27;;;4.84;84.82
50302;BME280;36550;50.472;19.744;2023-12-28T08:07:47;98120.56;;;4.95;84.69
50302;BME280;36550;50.472;19.744;2023-12-28T08:10:31;98133.42;;;5.06;84.68
50302;BME280;36550;50.472;19.744;2023-12-28T08:13:16;98130.29;;;5.13;84.43
50302;BME280;36550;50.472;19.744;2023-12-28T08:16:00;98122.02;;;5.20;83.79
50302;BME280;36550;50.472;19.744;2023-12-28T08:18:44;98124.96;;;5.28;83.40
50302;BME280;36550;50.472;19.744;2023-12-28T08:21:29;98122.23;;;5.36;83.37
50302;BME280;36550;50.472;19.744;2023-12-28T08:24:13;98116.21;;;5.41;82.52
50302;BME280;36550;50.472;19.744;2023-12-28T08:26:57;98120.48;;;5.46;82.58
50302;BME280;36550;50.472;19.744;2023-12-28T08:29:43;98127.77;;;5.51;82.27
50302;BME280;36550;50.472;19.744;2023-12-28T08:32:27;98132.73;;;5.57;82.50
50302;BME280;36550;50.472;19.744;2023-12-28T08:35:11;98140.48;;;5.62;82.45
50302;BME280;36550;50.472;19.744;2023-12-28T08:37:56;98138.52;;;5.65;82.26
50302;BME280;36550;50.472;19.744;2023-12-28T08:40:40;98137.71;;;5.68;81.95
50302;BME280;36550;50.472;19.744;2023-12-28T08:43:24;98140.88;;;5.72;81.51
50302;BME280;36550;50.472;19.744;2023-12-28T08:46:09;98140.04;;;5.78;81.33
50302;BME280;36550;50.472;19.744;2023-12-28T08:48:54;98141.56;;;5.85;80.97
50302;BME280;36550;50.472;19.744;2023-12-28T08:51:38;98143.33;;;5.91;80.87
50302;BME280;36550;50.472;19.744;2023-12-28T08:54:22;98142.96;;;6.00;80.99
50302;BME280;36550;50.472;19.744;2023-12-28T08:57:06;98144.56;;;6.08;80.50
50302;BME280;36550;50.472;19.744;2023-12-28T08:59:50;98148.61;;;6.18;79.89
50302;BME280;36550;50.472;19.744;2023-12-28T09:02:35;98152.88;;;6.26;79.73
50302;BME280;36550;50.472;19.744;2023-12-28T09:05:19;98153.42;;;6.34;80.12
50302;BME280;36550;50.472;19.744;2023-12-28T09:08:04;98149.89;;;6.42;78.44
50302;BME280;36550;50.472;19.744;2023-12-28T09:10:48;98148.86;;;6.50;77.37
50302;BME280;36550;50.472;19.744;2023-12-28T09:13:32;98137.61;;;6.59;78.08
50302;BME280;36550;50.472;19.744;2023-12-28T09:16:16;98136.64;;;6.67;78.78
50302;BME280;36550;50.472;19.744;2023-12-28T09:19:00;98135.96;;;6.73;79.35
50302;BME280;36550;50.472;19.744;2023-12-28T09:21:45;98132.14;;;6.77;78.64
50302;BME280;36550;50.472;19.744;2023-12-28T09:24:30;98131.11;;;6.83;78.60
50302;BME280;36550;50.472;19.744;2023-12-28T09:27:14;98131.16;;;6.89;78.58
50302;BME280;36550;50.472;19.744;2023-12-28T09:29:59;98128.45;;;6.94;78.87
50302;BME280;36550;50.472;19.744;2023-12-28T09:32:43;98121.73;;;6.97;77.88
50302;BME280;36550;50.472;19.744;2023-12-28T09:35:27;98120.84;;;7.01;77.96
50302;BME280;36550;50.472;19.744;2023-12-28T09:38:12;98119.52;;;7.07;78.30
50302;BME280;36550;50.472;19.744;2023-12-28T09:40:58;98110.38;;;7.11;78.04
50302;BME280;36550;50.472;19.744;2023-12-28T09:43:54;98101.29;;;7.16;78.18
50302;BME280;36550;50.472;19.744;2023-12-28T09:46:42;98098.93;;;7.21;76.85
50302;BME280;36550;50.472;19.744;2023-12-28T09:49:28;98101.56;;;7.26;76.83
50302;BME280;36550;50.472;19.744;2023-12-28T09:52:13;98107.88;;;7.30;76.25
50302;BME280;36550;50.472;19.744;2023-12-28T09:54:57;98104.80;;;7.35;75.65
50302;BME280;36550;50.472;19.744;2023-12-28T09:57:42;98100.34;;;7.39;74.52
50302;BME280;36550;50.472;19.744;2023-12-28T10:00:26;98095.98;;;7.42;72.88
50302;BME280;36550;50.472;19.744;2023-12-28T10:03:14;98102.11;;;7.45;73.60
50302;BME280;36550;50.472;19.744;2023-12-28T10:05:58;98096.52;;;7.46;73.33
50302;BME280;36550;50.472;19.744;2023-12-28T10:08:46;98095.04;;;7.45;73.12
50302;BME280;36550;50.472;19.744;2023-12-28T10:11:34;98099.14;;;7.45;72.63
50302;BME280;36550;50.472;19.744;2023-12-28T10:14:19;98093.95;;;7.47;72.36
50302;BME280;36550;50.472;19.744;2023-12-28T10:17:04;98085.95;;;7.46;72.79
50302;BME280;36550;50.472;19.744;2023-12-28T10:19:48;98079.09;;;7.44;72.51
50302;BME280;36550;50.472;19.744;2023-12-28T10:22:33;98080.64;;;7.41;71.25
50302;BME280;36550;50.472;19.744;2023-12-28T10:25:17;98084.82;;;7.43;71.54
50302;BME280;36550;50.472;19.744;2023-12-28T10:28:05;98087.63;;;7.48;71.94
50302;BME280;36550;50.472;19.744;2023-12-28T10:30:55;98095.28;;;7.51;71.85
50302;BME280;36550;50.472;19.744;2023-12-28T10:33:43;98098.48;;;7.54;72.26
50302;BME280;36550;50.472;19.744;2023-12-28T10:36:30;98087.45;;;7.57;72.20
50302;BME280;36550;50.472;19.744;2023-12-28T10:39:16;98083.68;;;7.61;72.13
50302;BME280;36550;50.472;19.744;2023-12-28T10:42:06;98082.13;;;7.64;71.20
50302;BME280;36550;50.472;19.744;2023-12-28T10:44:53;98089.04;;;7.69;72.01
50302;BME280;36550;50.472;19.744;2023-12-28T10:47:43;98091.54;;;7.73;71.05
50302;BME280;36550;50.472;19.744;2023-12-28T10:50:39;98084.38;;;7.78;70.79
50302;BME280;36550;50.472;19.744;2023-12-28T10:56:41;98080.25;;;7.90;70.45
50302;BME280;36550;50.472;19.744;2023-12-28T11:02:28;98074.77;;;8.13;70.20
50302;BME280;36550;50.472;19.744;2023-12-28T11:05:16;98072.19;;;8.21;69.31
50302;BME280;36550;50.472;19.744;2023-12-28T11:08:02;98073.27;;;8.28;69.50
50302;BME280;36550;50.472;19.744;2023-12-28T11:10:50;98065.77;;;8.31;68.98
50302;BME280;36550;50.472;19.744;2023-12-28T11:13:36;98062.54;;;8.34;67.94
50302;BME280;36550;50.472;19.744;2023-12-28T11:16:25;98060.58;;;8.36;68.11
50302;BME280;36550;50.472;19.744;2023-12-28T11:19:12;98060.70;;;8.39;69.18
50302;BME280;36550;50.472;19.744;2023-12-28T11:21:57;98054.25;;;8.41;68.98
50302;BME280;36550;50.472;19.744;2023-12-28T11:24:44;98040.60;;;8.43;68.53
50302;BME280;36550;50.472;19.744;2023-12-28T11:27:37;98033.08;;;8.47;68.58
50302;BME280;36550;50.472;19.744;2023-12-28T11:30:26;98033.02;;;8.60;67.68
50302;BME280;36550;50.472;19.744;2023-12-28T11:33:11;98038.19;;;8.79;67.59
50302;BME280;36550;50.472;19.744;2023-12-28T11:35:55;98043.99;;;9.02;67.10
50302;BME280;36550;50.472;19.744;2023-12-28T11:38:40;98033.18;;;9.26;64.91
50302;BME280;36550;50.472;19.744;2023-12-28T11:41:25;98029.88;;;9.46;64.83
50302;BME280;36550;50.472;19.744;2023-12-28T11:44:10;98030.73;;;9.62;65.19
50302;BME280;36550;50.472;19.744;2023-12-28T11:46:54;98037.18;;;9.72;64.64
50302;BME280;36550;50.472;19.744;2023-12-28T11:49:40;98036.84;;;9.77;65.17
50302;BME280;36550;50.472;19.744;2023-12-28T11:52:27;98041.98;;;9.78;64.01
50302;BME280;36550;50.472;19.744;2023-12-28T11:55:11;98034.50;;;9.79;64.30
50302;BME280;36550;50.472;19.744;2023-12-28T11:57:55;98032.06;;;9.80;64.91
50302;BME280;36550;50.472;19.744;2023-12-28T12:00:40;98034.11;;;9.78;64.41
50302;BME280;36550;50.472;19.744;2023-12-28T12:03:25;98024.36;;;9.75;65.60
50302;BME280;36550;50.472;19.744;2023-12-28T12:09:25;98020.96;;;9.73;64.63
50302;BME280;36550;50.472;19.744;2023-12-28T12:12:09;98022.38;;;9.78;64.05
50302;BME280;36550;50.472;19.744;2023-12-28T12:14:53;98021.29;;;9.80;64.15
50302;BME280;36550;50.472;19.744;2023-12-28T12:17:38;98014.40;;;9.85;63.97
50302;BME280;36550;50.472;19.744;2023-12-28T12:20:23;98006.69;;;9.87;63.05
50302;BME280;36550;50.472;19.744;2023-12-28T12:23:07;98008.42;;;9.92;63.49
50302;BME280;36550;50.472;19.744;2023-12-28T12:25:51;98016.05;;;9.98;63.59
50302;BME280;36550;50.472;19.744;2023-12-28T12:28:35;98018.83;;;10.03;63.55
50302;BME280;36550;50.472;19.744;2023-12-28T12:31:20;98016.91;;;10.09;64.11
50302;BME280;36550;50.472;19.744;2023-12-28T12:34:04;98009.11;;;10.13;63.50
50302;BME280;36550;50.472;19.744;2023-12-28T12:36:49;98008.77;;;10.14;63.44
50302;BME280;36550;50.472;19.744;2023-12-28T12:39:38;98006.22;;;10.09;62.07
50302;BME280;36550;50.472;19.744;2023-12-28T12:42:22;97999.40;;;10.07;62.64
50302;BME280;36550;50.472;19.744;2023-12-28T12:45:07;97999.45;;;10.04;62.08
50302;BME280;36550;50.472;19.744;2023-12-28T12:47:52;97998.15;;;10.02;63.06
50302;BME280;36550;50.472;19.744;2023-12-28T12:50:36;98004.17;;;9.99;62.72
50302;BME280;36550;50.472;19.744;2023-12-28T12:53:21;98013.59;;;10.01;63.06
50302;BME280;36550;50.472;19.744;2023-12-28T12:56:06;98009.96;;;10.00;63.20
50302;BME280;36550;50.472;19.744;2023-12-28T12:58:53;98010.19;;;9.99;62.46
50302;BME280;36550;50.472;19.744;2023-12-28T13:01:38;98003.19;;;10.00;63.02
50302;BME280;36550;50.472;19.744;2023-12-28T13:04:23;98004.02;;;10.02;63.06
50302;BME280;36550;50.472;19.744;2023-12-28T13:07:07;98016.76;;;10.04;63.27
50302;BME280;36550;50.472;19.744;2023-12-28T13:09:51;98018.14;;;10.08;63.26
50302;BME280;36550;50.472;19.744;2023-12-28T13:12:36;98019.47;;;10.12;63.64
50302;BME280;36550;50.472;19.744;2023-12-28T13:15:20;98015.11;;;10.12;63.30
50302;BME280;36550;50.472;19.744;2023-12-28T13:18:05;98016.65;;;10.12;64.01
50302;BME280;36550;50.472;19.744;2023-12-28T13:20:49;98014.64;;;10.09;64.39
50302;BME280;36550;50.472;19.744;2023-12-28T13:23:33;98003.67;;;10.05;64.31
50302;BME280;36550;50.472;19.744;2023-12-28T13:26:17;98002.41;;;10.00;64.32
50302;BME280;36550;50.472;19.744;2023-12-28T13:29:02;97996.88;;;9.94;63.97
50302;BME280;36550;50.472;19.744;2023-12-28T13:31:46;97998.56;;;9.89;64.23
50302;BME280;36550;50.472;19.744;2023-12-28T13:34:33;97995.48;;;9.83;64.18
50302;BME280;36550;50.472;19.744;2023-12-28T13:37:17;97992.69;;;9.79;64.83
50302;BME280;36550;50.472;19.744;2023-12-28T13:40:04;97990.90;;;9.74;65.04
50302;BME280;36550;50.472;19.744;2023-12-28T13:42:48;97988.94;;;9.66;64.96
50302;BME280;36550;50.472;19.744;2023-12-28T13:45:33;97984.26;;;9.58;65.18
50302;BME280;36550;50.472;19.744;2023-12-28T13:48:17;97988.44;;;9.50;65.32
50302;BME280;36550;50.472;19.744;2023-12-28T13:51:02;97992.23;;;9.44;65.74
50302;BME280;36550;50.472;19.744;2023-12-28T13:53:46;97992.75;;;9.37;66.09
50302;BME280;36550;50.472;19.744;2023-12-28T13:56:30;97989.71;;;9.31;65.97
50302;BME280;36550;50.472;19.744;2023-12-28T13:59:14;97995.31;;;9.26;66.18
50302;BME280;36550;50.472;19.744;2023-12-28T14:01:58;97991.45;;;9.20;66.72
50302;BME280;36550;50.472;19.744;2023-12-28T14:04:43;98002.83;;;9.14;66.50
50302;BME280;36550;50.472;19.744;2023-12-28T14:07:27;98011.55;;;9.11;66.85
50302;BME280;36550;50.472;19.744;2023-12-28T14:10:11;98013.92;;;9.05;67.05
50302;BME280;36550;50.472;19.744;2023-12-28T14:12:55;98024.23;;;9.01;67.23
50302;BME280;36550;50.472;19.744;2023-12-28T14:15:40;98028.89;;;8.97;67.55
50302;BME280;36550;50.472;19.744;2023-12-28T14:18:24;98033.61;;;8.91;67.52
50302;BME280;36550;50.472;19.744;2023-12-28T14:21:09;98037.61;;;8.86;67.86
50302;BME280;36550;50.472;19.744;2023-12-28T14:23:53;98032.93;;;8.81;68.09
50302;BME280;36550;50.472;19.744;2023-12-28T14:26:41;98033.64;;;8.76;68.42
50302;BME280;36550;50.472;19.744;2023-12-28T14:29:26;98024.85;;;8.72;68.33
50302;BME280;36550;50.472;19.744;2023-12-28T14:32:11;98030.75;;;8.69;68.79
50302;BME280;36550;50.472;19.744;2023-12-28T14:34:56;98036.61;;;8.67;69.04
50302;BME280;36550;50.472;19.744;2023-12-28T14:37:40;98033.23;;;8.64;69.01
50302;BME280;36550;50.472;19.744;2023-12-28T14:40:25;98029.27;;;8.60;69.31
50302;BME280;36550;50.472;19.744;2023-12-28T14:43:09;98029.55;;;8.56;69.43
50302;BME280;36550;50.472;19.744;2023-12-28T14:45:53;98036.44;;;8.52;69.49